Portada
METAR-TAF:

METAR-TAF

Aeroports :

Montpeller, França

latitud: 43-35N, longitud: 003-58E, altitud: 5 m

Observació

L'informe es va fer fa 25 minuts, a les 05:30 UTC
Vent 13 kt del Oest/Sud-Oest
Temperatura 11°C
Humitat 66%
Pressió 1015 hPa
Visibilitat 10 km o més
sense núvols per sota de 1500 mi sense presència de cumulonimbus.

METAR: LFMT 250530Z AUTO 25013KT CAVOK 11/05 Q1015 NOSIG

Hora: 06:55 (05:55 UTC)

Pronòstic

L'informe es va fer fa 3 hores i 55 minuts, a les 02:00 UTC
Pronòstic vàlid del 25 a les 03 UTC al 26 a les 03 UTC
Vent 10 kt del Oest
Visibilitat 10 km o més
sense núvols per sota de 1500 mi sense presència de cumulonimbus.
Evolucionant progressivament
l' 25 a les 08 UTC al 25 a les 10 UTC
Vent 16 kt del Oest amb ràfegues de 26 kt

TAF: LFMT 250200Z 2503/2603 27010KT CAVOK BECMG 2508/2510 28016G26KT

Observacions i pronòstics meteorològics de més de 4000 aeroports (METAR i TAF).

Les estacions disponibles són els punts grocs i vermells al mapa.

Posi el ratolí al punt desitjat per veure el nom de l'estació.

Feu clic per veure les observacions i els pronòstics meteorològics.

Per canviar el mapa: feu clic els botons verds amb una creu de color negre per apropar; al botó verd amb un guió per allunyar la imatge; o en les fletxes verdes per a mapes adjacents.


METAR-TAF: